createdAt,value
2019-06-20T00:00:43.730Z,19.20
2019-06-20T00:03:12.235Z,19.20
2019-06-20T00:05:40.944Z,19.20
2019-06-20T00:08:09.423Z,19.20
2019-06-20T00:10:37.934Z,19.20
2019-06-20T00:13:06.352Z,19.20
2019-06-20T00:15:36.319Z,19.20
2019-06-20T00:18:04.748Z,19.20
2019-06-20T00:20:33.165Z,19.20
2019-06-20T00:23:01.693Z,19.10
2019-06-20T00:25:30.947Z,19.10
2019-06-20T00:27:59.564Z,19.10
2019-06-20T00:30:28.003Z,19.20
2019-06-20T00:32:56.486Z,19.20
2019-06-20T00:35:24.915Z,19.20
2019-06-20T00:37:53.378Z,19.20
2019-06-20T00:40:21.946Z,19.20
2019-06-20T00:42:50.367Z,19.10
2019-06-20T00:45:19.356Z,19.10
2019-06-20T00:47:47.840Z,19.00
2019-06-20T00:50:16.621Z,19.00
2019-06-20T00:52:45.073Z,19.00
2019-06-20T00:55:13.625Z,18.90
2019-06-20T00:57:42.510Z,19.00
2019-06-20T01:00:12.169Z,19.10
2019-06-20T01:02:40.692Z,19.10
2019-06-20T01:05:09.340Z,19.20
2019-06-20T01:07:37.815Z,19.10
2019-06-20T01:10:08.191Z,19.20
2019-06-20T01:12:36.605Z,19.20
2019-06-20T01:15:08.544Z,19.30
2019-06-20T01:17:37.113Z,19.20
2019-06-20T01:20:08.540Z,19.00
2019-06-20T01:22:36.961Z,19.00
2019-06-20T01:25:08.701Z,18.90
2019-06-20T01:27:40.111Z,19.00
2019-06-20T01:30:09.811Z,19.10
2019-06-20T01:32:38.600Z,19.00
2019-06-20T01:35:08.088Z,19.10
2019-06-20T01:37:36.752Z,19.10
2019-06-20T01:40:08.202Z,19.00
2019-06-20T01:42:36.643Z,19.00
2019-06-20T01:45:08.365Z,19.00
2019-06-20T01:47:36.875Z,19.00
2019-06-20T01:50:06.865Z,19.10
2019-06-20T01:52:35.261Z,19.10
2019-06-20T01:55:04.667Z,18.90
2019-06-20T01:57:33.100Z,18.90
2019-06-20T02:00:01.649Z,19.00
2019-06-20T02:02:30.244Z,18.90
2019-06-20T02:04:58.877Z,18.70
2019-06-20T02:07:28.368Z,18.70
2019-06-20T02:09:56.895Z,18.70
2019-06-20T02:12:25.323Z,18.70
2019-06-20T02:14:53.767Z,18.70
2019-06-20T02:17:22.199Z,18.60
2019-06-20T02:19:50.607Z,18.60
2019-06-20T02:22:19.126Z,18.50
2019-06-20T02:24:47.536Z,18.50
2019-06-20T02:27:16.090Z,18.50
2019-06-20T02:29:44.494Z,18.50
2019-06-20T02:32:12.930Z,18.60
2019-06-20T02:34:41.337Z,18.80
2019-06-20T02:37:09.782Z,18.90
2019-06-20T02:39:38.218Z,18.90
2019-06-20T02:42:07.311Z,18.80
2019-06-20T02:44:35.793Z,18.80
2019-06-20T02:47:04.301Z,18.80
2019-06-20T02:49:32.711Z,18.70
2019-06-20T02:52:01.357Z,18.70
2019-06-20T02:54:30.070Z,18.70
2019-06-20T02:56:58.484Z,18.70
2019-06-20T02:59:26.917Z,18.50
2019-06-20T03:01:55.321Z,18.40
2019-06-20T03:04:23.781Z,18.30
2019-06-20T03:07:11.535Z,18.30
2019-06-20T03:09:40.036Z,18.30
2019-06-20T03:12:08.478Z,18.40
2019-06-20T03:14:45.558Z,18.40
2019-06-20T03:17:07.068Z,18.40
2019-06-20T03:19:35.528Z,18.30
2019-06-20T03:22:04.109Z,18.20
2019-06-20T03:24:32.541Z,18.10
2019-06-20T03:27:01.032Z,18.10
2019-06-20T03:29:29.692Z,18.20
2019-06-20T03:31:58.132Z,18.20
2019-06-20T03:34:26.583Z,18.20
2019-06-20T03:36:55.826Z,18.20
2019-06-20T03:39:24.243Z,18.20
2019-06-20T03:41:53.146Z,18.30
2019-06-20T03:44:21.585Z,18.40
2019-06-20T03:46:50.120Z,18.40
2019-06-20T03:49:18.568Z,18.50
2019-06-20T03:51:46.989Z,18.40
2019-06-20T03:54:15.466Z,18.50
2019-06-20T03:56:43.880Z,18.50
2019-06-20T03:59:12.359Z,18.60
2019-06-20T04:01:40.804Z,18.60
2019-06-20T04:04:09.316Z,18.50
2019-06-20T04:06:37.728Z,18.60
2019-06-20T04:09:06.543Z,18.60
2019-06-20T04:11:34.977Z,18.60
2019-06-20T04:14:03.426Z,18.60
2019-06-20T04:16:31.864Z,18.70
2019-06-20T04:19:00.301Z,18.70
2019-06-20T04:21:28.717Z,18.80
2019-06-20T04:23:57.145Z,18.80
2019-06-20T04:26:25.630Z,18.80
2019-06-20T04:28:54.119Z,18.70
2019-06-20T04:31:22.567Z,18.80
2019-06-20T04:33:51.088Z,18.80
2019-06-20T04:36:19.559Z,18.80
2019-06-20T04:38:47.971Z,18.90
2019-06-20T04:41:16.453Z,18.90
2019-06-20T04:43:44.921Z,18.90
2019-06-20T04:46:20.643Z,18.80
2019-06-20T04:48:49.092Z,19.00
2019-06-20T04:51:17.516Z,19.00
2019-06-20T04:53:46.040Z,19.20
2019-06-20T04:56:14.456Z,19.00
2019-06-20T04:58:55.557Z,19.30
2019-06-20T05:01:13.413Z,19.40
2019-06-20T05:03:41.855Z,19.50
2019-06-20T05:06:10.337Z,19.90
2019-06-20T05:08:38.766Z,19.90
2019-06-20T05:11:07.212Z,20.40
2019-06-20T05:13:35.634Z,20.40
2019-06-20T05:16:04.725Z,20.40
2019-06-20T05:18:33.158Z,20.00
2019-06-20T05:21:01.587Z,20.00
2019-06-20T05:23:30.041Z,20.00
2019-06-20T05:25:58.458Z,19.90
2019-06-20T05:28:27.403Z,19.80
2019-06-20T05:30:56.202Z,19.60
2019-06-20T05:33:24.765Z,19.60
2019-06-20T05:35:53.200Z,19.50
2019-06-20T05:38:21.724Z,19.60
2019-06-20T05:40:50.185Z,19.70
2019-06-20T05:43:18.608Z,19.90
2019-06-20T05:45:48.819Z,19.90
2019-06-20T05:48:17.211Z,20.00
2019-06-20T05:50:45.773Z,20.00
2019-06-20T05:53:14.275Z,20.20
2019-06-20T05:55:43.155Z,20.40
2019-06-20T05:58:11.630Z,20.50
2019-06-20T06:00:40.049Z,20.60
2019-06-20T06:03:09.218Z,21.00
2019-06-20T06:05:37.678Z,21.00
2019-06-20T06:08:06.412Z,21.20
2019-06-20T06:10:36.677Z,21.10
2019-06-20T06:13:05.447Z,21.10
2019-06-20T06:15:33.837Z,20.90
2019-06-20T06:18:02.567Z,20.80
2019-06-20T06:20:31.175Z,21.10
2019-06-20T06:22:59.630Z,22.10
2019-06-20T06:25:28.073Z,22.60
2019-06-20T06:27:56.537Z,22.30
2019-06-20T06:30:25.129Z,21.90
2019-06-20T06:32:53.687Z,21.50
2019-06-20T06:35:22.660Z,21.40
2019-06-20T06:37:51.151Z,21.20
2019-06-20T06:40:19.878Z,21.20
2019-06-20T06:42:48.295Z,21.00
2019-06-20T06:45:17.171Z,21.40
2019-06-20T06:47:45.652Z,21.50
2019-06-20T06:50:14.563Z,21.60
2019-06-20T06:52:43.035Z,21.70
2019-06-20T06:55:11.613Z,22.10
2019-06-20T06:57:40.697Z,22.30
2019-06-20T07:00:10.571Z,22.20
2019-06-20T07:02:39.152Z,22.00
2019-06-20T07:05:07.925Z,22.10
2019-06-20T07:07:36.396Z,22.30
2019-06-20T07:10:08.564Z,23.20
2019-06-20T07:12:37.261Z,24.40
2019-06-20T07:15:07.778Z,25.60
2019-06-20T07:17:36.397Z,25.50
2019-06-20T07:20:08.672Z,25.50
2019-06-20T07:22:37.276Z,25.20
2019-06-20T07:25:09.114Z,24.30
2019-06-20T07:27:37.521Z,24.30
2019-06-20T07:30:08.522Z,23.90
2019-06-20T07:32:36.937Z,23.20
2019-06-20T07:35:08.367Z,22.90
2019-06-20T07:37:36.851Z,22.80
2019-06-20T07:40:07.216Z,22.90
2019-06-20T07:42:35.707Z,22.70
2019-06-20T07:45:07.362Z,22.40
2019-06-20T07:47:36.145Z,22.60
2019-06-20T07:50:10.704Z,22.30
2019-06-20T07:52:39.195Z,22.70
2019-06-20T07:55:08.759Z,23.00
2019-06-20T07:57:37.212Z,23.00
2019-06-20T08:00:11.300Z,22.90
2019-06-20T08:02:39.798Z,22.70
2019-06-20T08:05:08.871Z,22.80
2019-06-20T08:07:37.457Z,22.80
2019-06-20T08:10:12.196Z,23.10
2019-06-20T08:12:41.052Z,23.10
2019-06-20T08:15:15.415Z,23.40
2019-06-20T08:17:40.645Z,23.80
2019-06-20T08:20:10.816Z,23.50
2019-06-20T08:22:39.422Z,23.50
2019-06-20T08:25:08.305Z,23.30
2019-06-20T08:27:51.991Z,23.10
2019-06-20T08:30:25.862Z,23.20
2019-06-20T08:32:56.097Z,23.40
2019-06-20T08:35:26.994Z,23.70
2019-06-20T08:37:56.085Z,24.00
2019-06-20T08:40:27.417Z,24.20
2019-06-20T08:42:57.156Z,24.10
2019-06-20T08:45:28.293Z,23.70
2019-06-20T08:47:58.272Z,23.60
2019-06-20T08:50:27.072Z,23.40
2019-06-20T08:52:57.600Z,23.30
2019-06-20T08:55:26.049Z,23.20
2019-06-20T08:57:55.797Z,23.10
2019-06-20T09:00:27.051Z,23.20
2019-06-20T09:02:56.876Z,23.10
2019-06-20T09:05:26.419Z,23.10
2019-06-20T09:07:56.557Z,22.90
2019-06-20T09:10:28.187Z,22.90
2019-06-20T09:12:57.080Z,22.80
2019-06-20T09:15:25.786Z,22.70
2019-06-20T09:17:55.267Z,22.90
2019-06-20T09:20:24.476Z,23.10
2019-06-20T09:22:54.026Z,23.20
2019-06-20T09:25:23.468Z,23.30
2019-06-20T09:27:54.105Z,23.60
2019-06-20T09:30:22.737Z,23.40
2019-06-20T09:32:52.236Z,23.70
2019-06-20T09:35:22.147Z,24.10
2019-06-20T09:37:51.841Z,24.10
2019-06-20T09:40:21.681Z,24.10
2019-06-20T09:42:52.929Z,24.00
2019-06-20T09:45:22.393Z,24.30
2019-06-20T09:47:52.189Z,25.20
2019-06-20T09:50:21.844Z,25.20
2019-06-20T09:52:51.420Z,25.20
2019-06-20T09:55:21.909Z,24.80
2019-06-20T09:57:51.916Z,25.20
2019-06-20T10:00:23.901Z,25.60
2019-06-20T10:02:54.103Z,25.60
2019-06-20T10:05:22.879Z,25.70
2019-06-20T10:07:52.309Z,26.10
2019-06-20T10:10:22.615Z,26.10
2019-06-20T10:12:51.767Z,25.90
2019-06-20T10:15:24.026Z,26.00
2019-06-20T10:17:52.733Z,25.90
2019-06-20T10:20:22.302Z,26.00
2019-06-20T10:22:51.059Z,25.90
2019-06-20T10:25:20.422Z,26.20
2019-06-20T10:27:49.759Z,26.00
2019-06-20T10:30:20.974Z,25.60
2019-06-20T10:32:50.885Z,26.50
2019-06-20T10:35:19.994Z,26.70
2019-06-20T10:37:48.623Z,26.80
2019-06-20T10:40:18.635Z,26.80
2019-06-20T10:42:48.092Z,26.70
2019-06-20T10:45:19.914Z,26.90
2019-06-20T10:47:49.035Z,26.70
2019-06-20T10:50:18.030Z,27.40
2019-06-20T10:52:48.085Z,27.20
2019-06-20T10:55:17.323Z,26.60
2019-06-20T10:57:46.823Z,25.50
2019-06-20T11:00:29.772Z,25.20
2019-06-20T11:02:47.040Z,25.10
2019-06-20T11:05:17.545Z,25.30
2019-06-20T11:07:47.454Z,25.00
2019-06-20T11:10:18.016Z,25.10
2019-06-20T11:12:52.973Z,25.10
2019-06-20T11:15:18.710Z,25.20
2019-06-20T11:17:48.401Z,25.40
2019-06-20T11:20:17.598Z,25.60
2019-06-20T11:22:47.547Z,25.20
2019-06-20T11:25:19.175Z,25.20
2019-06-20T11:27:47.420Z,25.30
2019-06-20T11:30:22.239Z,25.80
2019-06-20T11:32:50.658Z,25.80
2019-06-20T11:35:19.365Z,26.10
2019-06-20T11:37:47.810Z,25.60
2019-06-20T11:40:16.772Z,25.40
2019-06-20T11:42:46.763Z,25.30
2019-06-20T11:45:17.485Z,25.30
2019-06-20T11:47:47.109Z,25.40
2019-06-20T11:50:19.147Z,25.10
2019-06-20T11:52:47.672Z,25.20
2019-06-20T11:55:16.723Z,25.10
2019-06-20T11:57:45.376Z,25.40
2019-06-20T12:00:15.654Z,25.40
2019-06-20T12:02:44.462Z,25.30
2019-06-20T12:05:15.128Z,25.40
2019-06-20T12:07:45.385Z,25.20
2019-06-20T12:10:14.621Z,25.20
2019-06-20T12:12:44.587Z,25.40
2019-06-20T12:15:13.448Z,25.10
2019-06-20T12:17:43.453Z,25.10
2019-06-20T12:20:12.953Z,24.90
2019-06-20T12:22:42.896Z,24.60
2019-06-20T12:25:13.726Z,24.70
2019-06-20T12:27:43.188Z,24.50
2019-06-20T12:30:14.906Z,24.20
2019-06-20T12:32:49.359Z,24.10
2019-06-20T12:35:21.770Z,24.10
2019-06-20T12:37:54.110Z,23.90
2019-06-20T12:40:22.307Z,23.80
2019-06-20T12:42:50.718Z,23.70
2019-06-20T12:45:22.628Z,23.70
2019-06-20T12:47:55.901Z,23.50
2019-06-20T12:50:29.225Z,23.10
2019-06-20T12:52:57.640Z,23.00
2019-06-20T12:55:28.641Z,22.80
2019-06-20T12:57:57.079Z,22.70
2019-06-20T13:00:27.341Z,22.50
2019-06-20T13:02:55.856Z,22.20
2019-06-20T13:05:24.725Z,21.40
2019-06-20T13:07:53.214Z,20.70
2019-06-20T13:10:21.908Z,20.40
2019-06-20T13:12:51.516Z,20.30
2019-06-20T13:15:20.483Z,20.30
2019-06-20T13:17:50.594Z,20.40
2019-06-20T13:20:19.357Z,20.60
2019-06-20T13:22:49.371Z,20.70
2019-06-20T13:25:18.129Z,20.80
2019-06-20T13:27:47.848Z,20.70
2019-06-20T13:30:16.529Z,20.70
2019-06-20T13:32:45.365Z,20.60
2019-06-20T13:35:14.678Z,20.70
2019-06-20T13:37:43.469Z,20.80
2019-06-20T13:40:13.663Z,20.80
2019-06-20T13:42:43.701Z,20.60
2019-06-20T13:45:24.203Z,20.80
2019-06-20T13:47:52.796Z,20.70
2019-06-20T13:50:22.990Z,20.60
2019-06-20T13:52:52.235Z,20.60
2019-06-20T13:55:20.802Z,20.50
2019-06-20T13:57:49.518Z,20.60
2019-06-20T14:00:20.485Z,20.80
2019-06-20T14:02:50.698Z,20.90
2019-06-20T14:05:19.716Z,21.00
2019-06-20T14:07:53.234Z,21.10
2019-06-20T14:10:20.417Z,21.30
2019-06-20T14:12:48.990Z,21.50
2019-06-20T14:15:18.157Z,21.70
2019-06-20T14:17:47.249Z,21.70
2019-06-20T14:20:17.113Z,21.40
2019-06-20T14:22:45.585Z,21.20
2019-06-20T14:25:14.958Z,21.10
2019-06-20T14:27:43.963Z,21.30
2019-06-20T14:30:13.563Z,21.00
2019-06-20T14:32:43.238Z,20.90
2019-06-20T14:35:12.453Z,20.70
2019-06-20T14:37:43.384Z,20.50
2019-06-20T14:40:11.139Z,20.40
2019-06-20T14:42:39.701Z,20.50
2019-06-20T14:45:08.565Z,20.40
2019-06-20T14:47:37.166Z,20.30
2019-06-20T14:50:07.807Z,20.30
2019-06-20T14:52:36.243Z,20.30
2019-06-20T14:55:08.069Z,20.40
2019-06-20T14:57:36.495Z,20.50
2019-06-20T15:00:13.438Z,20.50
2019-06-20T15:02:41.842Z,20.70
2019-06-20T15:05:15.007Z,20.80
2019-06-20T15:07:45.125Z,20.90
2019-06-20T15:10:15.400Z,20.90
2019-06-20T15:12:45.830Z,20.90
2019-06-20T15:15:14.622Z,20.90
2019-06-20T15:17:45.137Z,21.10
2019-06-20T15:20:14.621Z,21.10
2019-06-20T15:22:43.350Z,21.20
2019-06-20T15:25:12.760Z,21.30
2019-06-20T15:27:41.267Z,21.10
2019-06-20T15:30:10.368Z,21.10
2019-06-20T15:32:53.439Z,21.10
2019-06-20T15:35:09.876Z,21.00
2019-06-20T15:37:38.327Z,20.80
2019-06-20T15:40:07.483Z,21.00
2019-06-20T15:42:35.928Z,20.90
2019-06-20T15:45:06.573Z,21.00
2019-06-20T15:47:35.038Z,20.90
2019-06-20T15:50:10.928Z,21.00
2019-06-20T15:52:40.698Z,21.10
2019-06-20T15:55:10.316Z,21.20
2019-06-20T15:57:38.812Z,21.30
2019-06-20T16:00:09.202Z,21.20
2019-06-20T16:02:37.704Z,21.30
2019-06-20T16:05:07.806Z,21.50
2019-06-20T16:07:36.272Z,21.30
2019-06-20T16:10:09.209Z,21.40
2019-06-20T16:12:37.726Z,21.50
2019-06-20T16:15:08.099Z,21.80
2019-06-20T16:17:36.629Z,21.80
2019-06-20T16:20:06.815Z,21.70
2019-06-20T16:22:35.294Z,21.60
2019-06-20T16:25:05.345Z,21.90
2019-06-20T16:27:33.772Z,21.90
2019-06-20T16:30:02.222Z,21.80
2019-06-20T16:32:30.630Z,21.90
2019-06-20T16:34:59.085Z,21.90
2019-06-20T16:37:27.507Z,22.00
2019-06-20T16:39:55.949Z,22.00
2019-06-20T16:42:24.382Z,21.90
2019-06-20T16:44:52.860Z,22.00
2019-06-20T16:47:21.323Z,21.60
2019-06-20T16:49:49.757Z,21.70
2019-06-20T16:52:18.175Z,21.60
2019-06-20T16:54:46.617Z,21.70
2019-06-20T16:57:15.032Z,22.10
2019-06-20T16:59:43.481Z,22.00
2019-06-20T17:02:11.998Z,22.00
2019-06-20T17:04:40.443Z,22.10
2019-06-20T17:07:08.860Z,21.90
2019-06-20T17:09:37.320Z,21.90
2019-06-20T17:12:05.808Z,22.00
2019-06-20T17:14:34.261Z,21.80
2019-06-20T17:17:02.685Z,21.80
2019-06-20T17:19:31.145Z,21.80
2019-06-20T17:22:02.597Z,21.90
2019-06-20T17:24:31.003Z,22.00
2019-06-20T17:26:59.475Z,22.00
2019-06-20T17:29:27.917Z,22.10
2019-06-20T17:31:57.454Z,22.10
2019-06-20T17:34:26.299Z,22.00
2019-06-20T17:36:54.730Z,21.90
2019-06-20T17:39:23.152Z,21.70
2019-06-20T17:41:55.278Z,21.50
2019-06-20T17:44:21.767Z,21.40
2019-06-20T17:46:50.266Z,21.30
2019-06-20T17:49:18.712Z,21.30
2019-06-20T17:51:47.182Z,21.30
2019-06-20T17:54:17.177Z,21.40
2019-06-20T17:56:45.571Z,21.30
2019-06-20T17:59:14.005Z,21.30
2019-06-20T18:01:42.437Z,21.30
2019-06-20T18:04:13.933Z,21.20
2019-06-20T18:06:41.092Z,21.30
2019-06-20T18:09:10.137Z,21.40
2019-06-20T18:11:38.585Z,21.50
2019-06-20T18:14:07.016Z,21.30
2019-06-20T18:16:35.462Z,21.30
2019-06-20T18:19:04.013Z,21.30
2019-06-20T18:21:32.487Z,21.10
2019-06-20T18:24:01.005Z,21.10
2019-06-20T18:26:29.455Z,21.30
2019-06-20T18:28:57.889Z,21.20
2019-06-20T18:31:26.339Z,21.20
2019-06-20T18:33:54.759Z,21.10
2019-06-20T18:36:23.241Z,21.10
2019-06-20T18:38:51.657Z,21.10
2019-06-20T18:41:20.075Z,21.20
2019-06-20T18:43:48.529Z,21.10
2019-06-20T18:46:16.934Z,21.10
2019-06-20T18:48:48.121Z,21.10
2019-06-20T18:51:16.549Z,21.00
2019-06-20T18:53:44.987Z,20.90
2019-06-20T18:56:13.419Z,20.90
2019-06-20T18:58:41.873Z,20.90
2019-06-20T19:01:10.291Z,20.80
2019-06-20T19:03:38.750Z,20.90
2019-06-20T19:06:07.269Z,20.80
2019-06-20T19:08:35.724Z,20.80
2019-06-20T19:11:04.313Z,20.70
2019-06-20T19:13:32.776Z,20.70
2019-06-20T19:16:01.288Z,20.60
2019-06-20T19:18:29.802Z,20.50
2019-06-20T19:20:58.316Z,20.60
2019-06-20T19:23:26.807Z,20.50
2019-06-20T19:25:55.221Z,20.40
2019-06-20T19:28:23.668Z,20.30
2019-06-20T19:30:52.558Z,20.30
2019-06-20T19:33:21.078Z,20.20
2019-06-20T19:35:49.522Z,20.20
2019-06-20T19:38:17.945Z,20.10
2019-06-20T19:40:48.631Z,20.00
2019-06-20T19:43:17.329Z,19.90
2019-06-20T19:45:46.236Z,19.90
2019-06-20T19:48:15.535Z,19.70
2019-06-20T19:50:44.588Z,19.70
2019-06-20T19:53:13.801Z,19.70
2019-06-20T19:55:42.733Z,19.80
2019-06-20T19:58:11.323Z,19.60
2019-06-20T20:00:39.740Z,19.50
2019-06-20T20:03:08.342Z,19.40
2019-06-20T20:05:37.119Z,19.40
2019-06-20T20:08:06.139Z,19.20
2019-06-20T20:10:46.189Z,19.20
2019-06-20T20:13:15.525Z,19.10
2019-06-20T20:15:45.148Z,19.00
2019-06-20T20:18:14.680Z,18.90
2019-06-20T20:20:47.727Z,18.90
2019-06-20T20:23:17.036Z,18.90
2019-06-20T20:25:45.610Z,18.90
2019-06-20T20:28:14.038Z,18.80
2019-06-20T20:30:42.485Z,18.80
2019-06-20T20:33:11.364Z,18.80
2019-06-20T20:35:39.785Z,18.80
2019-06-20T20:38:08.297Z,18.80
2019-06-20T20:40:36.712Z,18.90
2019-06-20T20:43:05.736Z,18.80
2019-06-20T20:45:34.184Z,18.80
2019-06-20T20:48:02.637Z,18.90
2019-06-20T20:50:31.155Z,18.70
2019-06-20T20:52:59.572Z,18.70
2019-06-20T20:55:29.296Z,18.70
2019-06-20T20:57:59.210Z,18.70
2019-06-20T21:00:36.501Z,18.70
2019-06-20T21:03:07.312Z,18.70
2019-06-20T21:05:50.443Z,18.70
2019-06-20T21:08:05.407Z,18.60
2019-06-20T21:10:33.849Z,18.60
2019-06-20T21:13:02.476Z,18.60
2019-06-20T21:15:30.887Z,18.60
2019-06-20T21:17:59.411Z,18.40
2019-06-20T21:20:27.852Z,18.30
2019-06-20T21:22:56.313Z,18.40
2019-06-20T21:25:24.778Z,18.40
2019-06-20T21:27:53.256Z,18.20
2019-06-20T21:30:21.820Z,18.20
2019-06-20T21:32:50.272Z,18.30
2019-06-20T21:35:19.046Z,18.30
2019-06-20T21:37:47.480Z,18.30
2019-06-20T21:40:15.984Z,18.40
2019-06-20T21:42:44.432Z,18.40
2019-06-20T21:45:13.388Z,18.50
2019-06-20T21:47:41.932Z,18.70
2019-06-20T21:50:10.976Z,18.70
2019-06-20T21:52:39.518Z,18.70
2019-06-20T21:55:08.278Z,18.50
2019-06-20T21:57:36.825Z,18.50
2019-06-20T22:00:17.067Z,18.40
2019-06-20T22:02:45.549Z,18.30
2019-06-20T22:05:14.282Z,18.30
2019-06-20T22:07:42.698Z,18.30
2019-06-20T22:10:11.488Z,18.20
2019-06-20T22:12:40.066Z,18.10
2019-06-20T22:15:09.108Z,18.20
2019-06-20T22:17:37.556Z,18.20
2019-06-20T22:20:07.578Z,18.20
2019-06-20T22:22:36.036Z,18.10
2019-06-20T22:25:08.776Z,18.20
2019-06-20T22:27:37.221Z,18.10
2019-06-20T22:30:08.862Z,18.00
2019-06-20T22:32:37.468Z,18.00
2019-06-20T22:35:07.665Z,18.00
2019-06-20T22:37:36.139Z,18.00
2019-06-20T22:40:10.733Z,18.10
2019-06-20T22:42:39.256Z,18.20
2019-06-20T22:45:11.291Z,18.20
2019-06-20T22:47:39.816Z,18.00
2019-06-20T22:50:08.586Z,18.00
2019-06-20T22:52:37.013Z,18.00
2019-06-20T22:55:08.403Z,18.00
2019-06-20T22:57:36.825Z,18.10
2019-06-20T23:00:07.632Z,18.10
2019-06-20T23:02:36.088Z,18.00
2019-06-20T23:05:05.753Z,18.00
2019-06-20T23:07:34.207Z,17.90
2019-06-20T23:10:10.523Z,17.90
2019-06-20T23:12:32.967Z,17.90
2019-06-20T23:15:01.493Z,17.90
2019-06-20T23:17:29.930Z,18.00
2019-06-20T23:19:58.356Z,18.00
2019-06-20T23:22:26.783Z,18.10
2019-06-20T23:24:55.243Z,18.10
2019-06-20T23:27:25.065Z,18.10
2019-06-20T23:29:53.507Z,18.10
2019-06-20T23:32:21.934Z,18.00
2019-06-20T23:34:50.385Z,18.00
2019-06-20T23:37:18.805Z,17.90
2019-06-20T23:39:47.285Z,17.80
2019-06-20T23:42:15.727Z,17.90
2019-06-20T23:44:46.842Z,18.10
2019-06-20T23:47:15.367Z,18.20
2019-06-20T23:49:43.821Z,18.10
2019-06-20T23:52:20.229Z,18.00
2019-06-20T23:54:48.666Z,18.00
2019-06-20T23:57:17.069Z,17.90
2019-06-20T23:59:45.790Z,17.80
